Wichita, KS (67203)

1:57 PM CST on January 27, 2015 (GMT -0600)
25th PERRY Wichita | Change Station
CLOSE
Current Station
Personal Weather Station
Location: WICHITA, KS
Elevation: 1298 ft
Nearby Weather Stations

Elev 1298 ft 37.73 °N, 97.36 °W | Updated 3 seconds ago

Clear
Clear
67.9 °F
Feels Like 67.9 °F
N
2.0
Wind Variable Wind from NNE
Gusts 6.0 mph

Today
High -- | Low -- °F
--% Chance of Precip.
Yesterday
High -- | Low -- °F
Precip. -- in
7:37 AM 5:47 PM
First Quarter, 57% visible
Pressure 30.07 in
Visibility 10.0 miles
Clouds Few 13000 ft
Dew Point 40 °F
Humidity 36%
Rainfall 0.00 in
Snow Depth Not available.
UV 4 out of 12
Pollen 1.80 out of 12
Air Quality Not available.
Flu Activity Not available.
METAR KICT 271853Z 20014KT 10SM FEW130 19/01 A3007 RMK AO2 SLP183 T01890011

More Conditions Fewer Conditions

Pressure 30.07 in
Visibility 10.0 miles
Clouds Few 13000 ft
Dew Point 40 °F
Humidity 36%
Rainfall 0.00 in
Snow Depth Not available.
UV 4 out of 12
Pollen 1.80 out of 12
Air Quality Not available.
Flu Activity Not available.
METAR KICT 271853Z 20014KT 10SM FEW130 19/01 A3007 RMK AO2 SLP183 T01890011

More Conditions Fewer Conditions

10-Day Weather Forecast

Almanac

Astronomy

Jan. 27, 2015 Rise Set
Actual Time
Civil Twilight
Nautical Twilight
Astronomical Twilight
Moon
Length of Visible Light
Length of Day
Tomorrow will be .
, % of the Moon is Illuminated

Today's Extremes

State Highs State Lows

Community

WunderPhotos

Upload Photos

1,790,837 photos uploaded!

WunderBlogs® & News

Nearby

Air Quality

  Air Quality AQ Index Pollutant
Not available.

Snow Depth

Station Depth Elevation

Earthquake Activity

City Distance Mag. Time & Date
Minimum magnitude displayed is 2.5.

Coastal Water Temperatures

Place Temperature

Nearby Weather Stations